sensor_id;sensor_type;location;lat;lon;timestamp;P1;durP1;ratioP1;P2;durP2;ratioP2
37701;SDS011;23548;51.196;6.838;2023-05-19T00:02:14;9.40;;;5.80;;
37701;SDS011;23548;51.196;6.838;2023-05-19T00:04:42;11.68;;;6.05;;
37701;SDS011;23548;51.196;6.838;2023-05-19T00:07:09;11.80;;;5.93;;
37701;SDS011;23548;51.196;6.838;2023-05-19T00:09:36;11.65;;;6.03;;
37701;SDS011;23548;51.196;6.838;2023-05-19T00:12:02;10.55;;;5.93;;
37701;SDS011;23548;51.196;6.838;2023-05-19T00:14:28;13.25;;;6.43;;
37701;SDS011;23548;51.196;6.838;2023-05-19T00:16:54;12.23;;;6.20;;
37701;SDS011;23548;51.196;6.838;2023-05-19T00:19:21;10.57;;;6.38;;
37701;SDS011;23548;51.196;6.838;2023-05-19T00:21:48;12.32;;;6.35;;
37701;SDS011;23548;51.196;6.838;2023-05-19T00:24:14;11.35;;;6.45;;
37701;SDS011;23548;51.196;6.838;2023-05-19T00:26:39;15.48;;;6.82;;
37701;SDS011;23548;51.196;6.838;2023-05-19T00:29:05;14.85;;;6.70;;
37701;SDS011;23548;51.196;6.838;2023-05-19T00:31:31;11.75;;;6.45;;
37701;SDS011;23548;51.196;6.838;2023-05-19T00:33:58;8.88;;;5.85;;
37701;SDS011;23548;51.196;6.838;2023-05-19T00:36:24;15.40;;;6.65;;
37701;SDS011;23548;51.196;6.838;2023-05-19T00:38:50;14.18;;;7.00;;
37701;SDS011;23548;51.196;6.838;2023-05-19T00:41:15;10.73;;;5.85;;
37701;SDS011;23548;51.196;6.838;2023-05-19T00:43:41;14.50;;;6.57;;
37701;SDS011;23548;51.196;6.838;2023-05-19T00:46:07;14.02;;;6.70;;
37701;SDS011;23548;51.196;6.838;2023-05-19T00:48:34;15.18;;;6.68;;
37701;SDS011;23548;51.196;6.838;2023-05-19T00:51:00;13.57;;;6.80;;
37701;SDS011;23548;51.196;6.838;2023-05-19T00:53:30;13.90;;;7.43;;
37701;SDS011;23548;51.196;6.838;2023-05-19T00:56:00;14.73;;;7.03;;
37701;SDS011;23548;51.196;6.838;2023-05-19T00:58:26;10.77;;;6.97;;
37701;SDS011;23548;51.196;6.838;2023-05-19T01:00:55;18.77;;;6.47;;
37701;SDS011;23548;51.196;6.838;2023-05-19T01:03:30;17.42;;;7.07;;
37701;SDS011;23548;51.196;6.838;2023-05-19T01:05:58;13.90;;;6.55;;
37701;SDS011;23548;51.196;6.838;2023-05-19T01:08:36;10.65;;;5.90;;
37701;SDS011;23548;51.196;6.838;2023-05-19T01:11:06;12.25;;;5.75;;
37701;SDS011;23548;51.196;6.838;2023-05-19T01:13:33;15.68;;;6.95;;
37701;SDS011;23548;51.196;6.838;2023-05-19T01:16:10;13.63;;;6.60;;
37701;SDS011;23548;51.196;6.838;2023-05-19T01:32:41;12.02;;;6.03;;
37701;SDS011;23548;51.196;6.838;2023-05-19T01:35:08;12.73;;;6.38;;
37701;SDS011;23548;51.196;6.838;2023-05-19T01:37:37;12.52;;;6.55;;
37701;SDS011;23548;51.196;6.838;2023-05-19T01:40:05;15.32;;;6.20;;
37701;SDS011;23548;51.196;6.838;2023-05-19T01:42:32;14.50;;;6.65;;
37701;SDS011;23548;51.196;6.838;2023-05-19T01:45:02;14.40;;;5.85;;
37701;SDS011;23548;51.196;6.838;2023-05-19T01:47:31;15.65;;;6.10;;
37701;SDS011;23548;51.196;6.838;2023-05-19T01:49:59;9.07;;;6.00;;
37701;SDS011;23548;51.196;6.838;2023-05-19T01:52:25;12.73;;;6.13;;
37701;SDS011;23548;51.196;6.838;2023-05-19T01:54:50;12.00;;;6.47;;
37701;SDS011;23548;51.196;6.838;2023-05-19T02:03:40;11.18;;;5.78;;
37701;SDS011;23548;51.196;6.838;2023-05-19T02:11:46;12.88;;;5.80;;
37701;SDS011;23548;51.196;6.838;2023-05-19T02:15:04;15.07;;;6.95;;
37701;SDS011;23548;51.196;6.838;2023-05-19T02:17:23;9.40;;;6.40;;
37701;SDS011;23548;51.196;6.838;2023-05-19T02:19:53;13.70;;;6.30;;
37701;SDS011;23548;51.196;6.838;2023-05-19T02:22:19;8.20;;;5.97;;
37701;SDS011;23548;51.196;6.838;2023-05-19T02:24:45;16.63;;;6.03;;
37701;SDS011;23548;51.196;6.838;2023-05-19T02:27:11;10.57;;;6.10;;
37701;SDS011;23548;51.196;6.838;2023-05-19T02:29:37;13.77;;;6.47;;
37701;SDS011;23548;51.196;6.838;2023-05-19T02:32:03;14.80;;;6.80;;
37701;SDS011;23548;51.196;6.838;2023-05-19T02:34:30;12.65;;;6.10;;
37701;SDS011;23548;51.196;6.838;2023-05-19T02:36:55;13.88;;;6.65;;
37701;SDS011;23548;51.196;6.838;2023-05-19T02:39:21;14.40;;;6.55;;
37701;SDS011;23548;51.196;6.838;2023-05-19T02:41:47;11.90;;;6.25;;
37701;SDS011;23548;51.196;6.838;2023-05-19T02:44:13;14.68;;;7.28;;
37701;SDS011;23548;51.196;6.838;2023-05-19T02:46:39;11.82;;;6.45;;
37701;SDS011;23548;51.196;6.838;2023-05-19T02:49:05;12.35;;;6.53;;
37701;SDS011;23548;51.196;6.838;2023-05-19T02:51:31;11.65;;;6.07;;
37701;SDS011;23548;51.196;6.838;2023-05-19T02:53:56;11.95;;;6.07;;
37701;SDS011;23548;51.196;6.838;2023-05-19T02:56:22;9.85;;;5.65;;
37701;SDS011;23548;51.196;6.838;2023-05-19T02:58:48;9.10;;;5.72;;
37701;SDS011;23548;51.196;6.838;2023-05-19T03:01:14;17.20;;;7.05;;
37701;SDS011;23548;51.196;6.838;2023-05-19T03:03:40;13.32;;;6.38;;
37701;SDS011;23548;51.196;6.838;2023-05-19T03:06:06;9.13;;;6.07;;
37701;SDS011;23548;51.196;6.838;2023-05-19T03:08:33;13.70;;;6.10;;
37701;SDS011;23548;51.196;6.838;2023-05-19T03:10:59;13.82;;;6.03;;
37701;SDS011;23548;51.196;6.838;2023-05-19T03:13:26;12.13;;;6.22;;
37701;SDS011;23548;51.196;6.838;2023-05-19T03:15:52;12.05;;;6.30;;
37701;SDS011;23548;51.196;6.838;2023-05-19T03:18:21;13.30;;;6.50;;
37701;SDS011;23548;51.196;6.838;2023-05-19T03:20:48;14.25;;;6.40;;
37701;SDS011;23548;51.196;6.838;2023-05-19T03:23:14;11.68;;;6.30;;
37701;SDS011;23548;51.196;6.838;2023-05-19T03:25:40;12.57;;;6.03;;
37701;SDS011;23548;51.196;6.838;2023-05-19T03:28:06;19.45;;;7.38;;
37701;SDS011;23548;51.196;6.838;2023-05-19T03:30:31;11.60;;;6.53;;
37701;SDS011;23548;51.196;6.838;2023-05-19T03:32:57;11.38;;;7.22;;
37701;SDS011;23548;51.196;6.838;2023-05-19T03:35:25;14.02;;;7.43;;
37701;SDS011;23548;51.196;6.838;2023-05-19T03:37:51;12.02;;;6.80;;
37701;SDS011;23548;51.196;6.838;2023-05-19T03:40:17;16.65;;;7.82;;
37701;SDS011;23548;51.196;6.838;2023-05-19T03:42:43;15.10;;;6.95;;
37701;SDS011;23548;51.196;6.838;2023-05-19T03:45:09;15.70;;;7.30;;
37701;SDS011;23548;51.196;6.838;2023-05-19T03:47:35;11.60;;;7.28;;
37701;SDS011;23548;51.196;6.838;2023-05-19T03:50:00;11.52;;;6.88;;
37701;SDS011;23548;51.196;6.838;2023-05-19T03:52:26;21.05;;;7.70;;
37701;SDS011;23548;51.196;6.838;2023-05-19T03:54:52;13.05;;;7.40;;
37701;SDS011;23548;51.196;6.838;2023-05-19T03:57:18;11.82;;;6.18;;
37701;SDS011;23548;51.196;6.838;2023-05-19T03:59:43;11.00;;;7.00;;
37701;SDS011;23548;51.196;6.838;2023-05-19T04:02:10;15.57;;;7.13;;
37701;SDS011;23548;51.196;6.838;2023-05-19T04:04:35;13.52;;;7.22;;
37701;SDS011;23548;51.196;6.838;2023-05-19T04:07:02;11.75;;;6.82;;
37701;SDS011;23548;51.196;6.838;2023-05-19T04:09:28;12.27;;;6.65;;
37701;SDS011;23548;51.196;6.838;2023-05-19T04:11:56;12.30;;;7.22;;
37701;SDS011;23548;51.196;6.838;2023-05-19T04:14:22;14.68;;;6.70;;
37701;SDS011;23548;51.196;6.838;2023-05-19T04:16:48;15.57;;;6.68;;
37701;SDS011;23548;51.196;6.838;2023-05-19T04:19:14;14.73;;;5.97;;
37701;SDS011;23548;51.196;6.838;2023-05-19T04:21:40;16.65;;;6.68;;
37701;SDS011;23548;51.196;6.838;2023-05-19T04:24:05;15.57;;;6.15;;
37701;SDS011;23548;51.196;6.838;2023-05-19T04:26:31;12.90;;;6.75;;
37701;SDS011;23548;51.196;6.838;2023-05-19T04:28:58;15.82;;;6.07;;
37701;SDS011;23548;51.196;6.838;2023-05-19T04:31:25;10.85;;;6.13;;
37701;SDS011;23548;51.196;6.838;2023-05-19T04:33:53;12.50;;;5.57;;
37701;SDS011;23548;51.196;6.838;2023-05-19T04:36:19;12.15;;;5.78;;
37701;SDS011;23548;51.196;6.838;2023-05-19T04:38:45;12.93;;;5.78;;
37701;SDS011;23548;51.196;6.838;2023-05-19T04:41:12;7.82;;;5.10;;
37701;SDS011;23548;51.196;6.838;2023-05-19T04:43:37;12.95;;;6.10;;
37701;SDS011;23548;51.196;6.838;2023-05-19T04:46:06;11.63;;;4.80;;
37701;SDS011;23548;51.196;6.838;2023-05-19T04:48:34;9.95;;;4.82;;
37701;SDS011;23548;51.196;6.838;2023-05-19T04:50:59;8.65;;;4.90;;
37701;SDS011;23548;51.196;6.838;2023-05-19T04:53:26;15.80;;;5.15;;
37701;SDS011;23548;51.196;6.838;2023-05-19T04:55:53;9.23;;;4.60;;
37701;SDS011;23548;51.196;6.838;2023-05-19T04:58:20;11.45;;;4.53;;
37701;SDS011;23548;51.196;6.838;2023-05-19T05:00:49;9.95;;;4.15;;
37701;SDS011;23548;51.196;6.838;2023-05-19T05:03:16;11.57;;;4.82;;
37701;SDS011;23548;51.196;6.838;2023-05-19T05:05:42;9.73;;;4.38;;
37701;SDS011;23548;51.196;6.838;2023-05-19T05:08:08;14.48;;;4.47;;
37701;SDS011;23548;51.196;6.838;2023-05-19T05:10:35;11.18;;;4.50;;
37701;SDS011;23548;51.196;6.838;2023-05-19T05:13:00;11.07;;;4.18;;
37701;SDS011;23548;51.196;6.838;2023-05-19T05:15:26;10.65;;;4.97;;
37701;SDS011;23548;51.196;6.838;2023-05-19T05:17:53;12.65;;;4.13;;
37701;SDS011;23548;51.196;6.838;2023-05-19T05:20:20;9.15;;;4.10;;
37701;SDS011;23548;51.196;6.838;2023-05-19T05:22:46;10.65;;;4.10;;
37701;SDS011;23548;51.196;6.838;2023-05-19T05:25:12;13.60;;;4.28;;
37701;SDS011;23548;51.196;6.838;2023-05-19T05:27:39;9.25;;;4.13;;
37701;SDS011;23548;51.196;6.838;2023-05-19T05:30:05;13.35;;;8.55;;
37701;SDS011;23548;51.196;6.838;2023-05-19T05:32:31;9.68;;;5.07;;
37701;SDS011;23548;51.196;6.838;2023-05-19T05:34:57;12.38;;;4.03;;
37701;SDS011;23548;51.196;6.838;2023-05-19T05:37:23;8.82;;;3.85;;
37701;SDS011;23548;51.196;6.838;2023-05-19T05:39:48;12.18;;;4.22;;
37701;SDS011;23548;51.196;6.838;2023-05-19T05:42:14;12.50;;;4.72;;
37701;SDS011;23548;51.196;6.838;2023-05-19T05:44:40;10.93;;;3.53;;
37701;SDS011;23548;51.196;6.838;2023-05-19T05:47:06;8.13;;;3.60;;
37701;SDS011;23548;51.196;6.838;2023-05-19T05:49:32;15.55;;;4.65;;
37701;SDS011;23548;51.196;6.838;2023-05-19T05:52:02;14.27;;;3.95;;
37701;SDS011;23548;51.196;6.838;2023-05-19T05:54:29;11.60;;;4.45;;
37701;SDS011;23548;51.196;6.838;2023-05-19T05:56:55;12.63;;;4.22;;
37701;SDS011;23548;51.196;6.838;2023-05-19T05:59:21;9.90;;;4.20;;
37701;SDS011;23548;51.196;6.838;2023-05-19T06:01:47;10.15;;;3.85;;
37701;SDS011;23548;51.196;6.838;2023-05-19T06:04:13;8.93;;;4.00;;
37701;SDS011;23548;51.196;6.838;2023-05-19T06:06:38;9.98;;;4.05;;
37701;SDS011;23548;51.196;6.838;2023-05-19T06:09:05;8.82;;;4.60;;
37701;SDS011;23548;51.196;6.838;2023-05-19T06:11:31;11.43;;;4.03;;
37701;SDS011;23548;51.196;6.838;2023-05-19T06:13:57;11.45;;;4.25;;
37701;SDS011;23548;51.196;6.838;2023-05-19T06:16:22;11.52;;;4.10;;
37701;SDS011;23548;51.196;6.838;2023-05-19T06:18:48;8.43;;;3.92;;
37701;SDS011;23548;51.196;6.838;2023-05-19T06:21:14;9.70;;;3.72;;
37701;SDS011;23548;51.196;6.838;2023-05-19T06:23:41;16.98;;;3.50;;
37701;SDS011;23548;51.196;6.838;2023-05-19T06:26:08;12.93;;;4.03;;
37701;SDS011;23548;51.196;6.838;2023-05-19T06:28:34;11.95;;;5.07;;
37701;SDS011;23548;51.196;6.838;2023-05-19T06:31:00;9.80;;;3.88;;
37701;SDS011;23548;51.196;6.838;2023-05-19T06:33:26;5.88;;;3.25;;
37701;SDS011;23548;51.196;6.838;2023-05-19T06:35:52;9.45;;;3.78;;
37701;SDS011;23548;51.196;6.838;2023-05-19T06:38:17;9.13;;;3.30;;
37701;SDS011;23548;51.196;6.838;2023-05-19T06:40:43;8.93;;;3.25;;
37701;SDS011;23548;51.196;6.838;2023-05-19T06:43:09;8.55;;;3.17;;
37701;SDS011;23548;51.196;6.838;2023-05-19T06:45:35;9.60;;;3.30;;
37701;SDS011;23548;51.196;6.838;2023-05-19T06:48:01;6.45;;;3.15;;
37701;SDS011;23548;51.196;6.838;2023-05-19T06:50:27;12.00;;;3.55;;
37701;SDS011;23548;51.196;6.838;2023-05-19T06:52:53;9.23;;;3.20;;
37701;SDS011;23548;51.196;6.838;2023-05-19T06:55:19;12.38;;;3.67;;
37701;SDS011;23548;51.196;6.838;2023-05-19T06:57:45;8.60;;;3.60;;
37701;SDS011;23548;51.196;6.838;2023-05-19T07:00:11;14.38;;;3.38;;
37701;SDS011;23548;51.196;6.838;2023-05-19T07:02:37;5.43;;;2.95;;
37701;SDS011;23548;51.196;6.838;2023-05-19T07:05:04;7.75;;;2.80;;
37701;SDS011;23548;51.196;6.838;2023-05-19T07:07:30;7.45;;;3.35;;
37701;SDS011;23548;51.196;6.838;2023-05-19T07:09:56;7.45;;;2.97;;
37701;SDS011;23548;51.196;6.838;2023-05-19T07:12:22;6.93;;;3.15;;
37701;SDS011;23548;51.196;6.838;2023-05-19T07:14:48;7.43;;;3.28;;
37701;SDS011;23548;51.196;6.838;2023-05-19T07:17:14;12.60;;;3.35;;
37701;SDS011;23548;51.196;6.838;2023-05-19T07:19:40;9.15;;;3.28;;
37701;SDS011;23548;51.196;6.838;2023-05-19T07:22:05;9.20;;;3.15;;
37701;SDS011;23548;51.196;6.838;2023-05-19T07:24:31;8.38;;;3.25;;
37701;SDS011;23548;51.196;6.838;2023-05-19T07:26:57;7.63;;;3.47;;
37701;SDS011;23548;51.196;6.838;2023-05-19T07:29:23;10.70;;;3.13;;
37701;SDS011;23548;51.196;6.838;2023-05-19T07:31:48;8.10;;;3.08;;
37701;SDS011;23548;51.196;6.838;2023-05-19T07:34:18;11.55;;;3.20;;
37701;SDS011;23548;51.196;6.838;2023-05-19T07:36:45;9.65;;;2.95;;
37701;SDS011;23548;51.196;6.838;2023-05-19T07:39:10;13.90;;;3.17;;
37701;SDS011;23548;51.196;6.838;2023-05-19T07:41:36;8.27;;;3.35;;
37701;SDS011;23548;51.196;6.838;2023-05-19T07:44:02;12.55;;;3.28;;
37701;SDS011;23548;51.196;6.838;2023-05-19T07:46:31;7.60;;;3.10;;
37701;SDS011;23548;51.196;6.838;2023-05-19T07:48:58;8.82;;;2.83;;
37701;SDS011;23548;51.196;6.838;2023-05-19T07:51:23;8.77;;;2.83;;
37701;SDS011;23548;51.196;6.838;2023-05-19T07:53:49;10.85;;;3.10;;
37701;SDS011;23548;51.196;6.838;2023-05-19T07:56:15;6.20;;;2.90;;
37701;SDS011;23548;51.196;6.838;2023-05-19T07:58:41;11.30;;;2.92;;
37701;SDS011;23548;51.196;6.838;2023-05-19T08:01:06;8.82;;;3.35;;
37701;SDS011;23548;51.196;6.838;2023-05-19T08:03:33;8.25;;;3.35;;
37701;SDS011;23548;51.196;6.838;2023-05-19T08:05:58;10.18;;;2.83;;
37701;SDS011;23548;51.196;6.838;2023-05-19T08:08:25;8.93;;;2.72;;
37701;SDS011;23548;51.196;6.838;2023-05-19T08:10:51;11.32;;;3.03;;
37701;SDS011;23548;51.196;6.838;2023-05-19T08:13:16;5.32;;;2.38;;
37701;SDS011;23548;51.196;6.838;2023-05-19T08:15:42;8.80;;;2.78;;
37701;SDS011;23548;51.196;6.838;2023-05-19T08:18:08;9.77;;;2.85;;
37701;SDS011;23548;51.196;6.838;2023-05-19T08:20:34;7.20;;;2.35;;
37701;SDS011;23548;51.196;6.838;2023-05-19T08:23:00;8.10;;;2.53;;
37701;SDS011;23548;51.196;6.838;2023-05-19T08:25:26;14.43;;;3.25;;
37701;SDS011;23548;51.196;6.838;2023-05-19T08:27:52;7.10;;;3.05;;
37701;SDS011;23548;51.196;6.838;2023-05-19T08:30:18;7.18;;;2.58;;
37701;SDS011;23548;51.196;6.838;2023-05-19T08:32:44;7.93;;;2.67;;
37701;SDS011;23548;51.196;6.838;2023-05-19T08:35:10;7.47;;;2.55;;
37701;SDS011;23548;51.196;6.838;2023-05-19T08:37:36;8.13;;;2.65;;
37701;SDS011;23548;51.196;6.838;2023-05-19T08:40:03;7.90;;;2.30;;
37701;SDS011;23548;51.196;6.838;2023-05-19T08:42:29;8.13;;;2.83;;
37701;SDS011;23548;51.196;6.838;2023-05-19T08:44:57;7.68;;;2.75;;
37701;SDS011;23548;51.196;6.838;2023-05-19T08:47:23;5.72;;;2.67;;
37701;SDS011;23548;51.196;6.838;2023-05-19T08:49:52;8.25;;;2.35;;
37701;SDS011;23548;51.196;6.838;2023-05-19T08:52:30;5.38;;;2.13;;
37701;SDS011;23548;51.196;6.838;2023-05-19T08:55:07;6.15;;;2.30;;
37701;SDS011;23548;51.196;6.838;2023-05-19T08:57:35;9.23;;;2.67;;
37701;SDS011;23548;51.196;6.838;2023-05-19T09:00:04;9.18;;;2.50;;
37701;SDS011;23548;51.196;6.838;2023-05-19T09:02:36;10.68;;;2.90;;
37701;SDS011;23548;51.196;6.838;2023-05-19T09:05:03;7.10;;;2.65;;
37701;SDS011;23548;51.196;6.838;2023-05-19T09:07:30;14.73;;;2.92;;
37701;SDS011;23548;51.196;6.838;2023-05-19T09:09:59;10.63;;;2.92;;
37701;SDS011;23548;51.196;6.838;2023-05-19T09:12:26;9.93;;;2.63;;
37701;SDS011;23548;51.196;6.838;2023-05-19T09:14:52;8.25;;;2.75;;
37701;SDS011;23548;51.196;6.838;2023-05-19T09:17:17;11.77;;;3.17;;
37701;SDS011;23548;51.196;6.838;2023-05-19T09:19:43;5.70;;;2.65;;
37701;SDS011;23548;51.196;6.838;2023-05-19T09:22:13;11.45;;;2.47;;
37701;SDS011;23548;51.196;6.838;2023-05-19T09:24:40;14.70;;;2.60;;
37701;SDS011;23548;51.196;6.838;2023-05-19T09:27:06;10.05;;;3.50;;
37701;SDS011;23548;51.196;6.838;2023-05-19T09:29:32;8.20;;;2.78;;
37701;SDS011;23548;51.196;6.838;2023-05-19T09:31:58;6.30;;;2.65;;
37701;SDS011;23548;51.196;6.838;2023-05-19T09:34:29;8.13;;;2.67;;
37701;SDS011;23548;51.196;6.838;2023-05-19T09:36:55;7.72;;;2.80;;
37701;SDS011;23548;51.196;6.838;2023-05-19T09:39:23;9.57;;;2.95;;
37701;SDS011;23548;51.196;6.838;2023-05-19T09:41:50;8.30;;;2.38;;
37701;SDS011;23548;51.196;6.838;2023-05-19T09:44:22;5.95;;;2.42;;
37701;SDS011;23548;51.196;6.838;2023-05-19T09:46:53;9.90;;;2.83;;
37701;SDS011;23548;51.196;6.838;2023-05-19T09:51:50;5.10;;;2.45;;
37701;SDS011;23548;51.196;6.838;2023-05-19T09:54:19;7.75;;;2.50;;
37701;SDS011;23548;51.196;6.838;2023-05-19T09:57:07;6.68;;;2.42;;
37701;SDS011;23548;51.196;6.838;2023-05-19T09:59:32;11.65;;;3.17;;
37701;SDS011;23548;51.196;6.838;2023-05-19T10:01:59;9.63;;;2.40;;
37701;SDS011;23548;51.196;6.838;2023-05-19T10:04:26;10.43;;;2.60;;
37701;SDS011;23548;51.196;6.838;2023-05-19T10:06:54;5.82;;;2.28;;
37701;SDS011;23548;51.196;6.838;2023-05-19T10:09:23;6.75;;;2.63;;
37701;SDS011;23548;51.196;6.838;2023-05-19T10:11:51;9.35;;;2.55;;
37701;SDS011;23548;51.196;6.838;2023-05-19T10:14:21;5.97;;;2.40;;
37701;SDS011;23548;51.196;6.838;2023-05-19T10:16:52;6.30;;;2.30;;
37701;SDS011;23548;51.196;6.838;2023-05-19T10:19:22;8.43;;;2.45;;
37701;SDS011;23548;51.196;6.838;2023-05-19T10:21:50;9.30;;;2.58;;
37701;SDS011;23548;51.196;6.838;2023-05-19T10:24:17;8.20;;;2.78;;
37701;SDS011;23548;51.196;6.838;2023-05-19T10:29:32;5.72;;;2.80;;
37701;SDS011;23548;51.196;6.838;2023-05-19T10:32:03;8.88;;;2.88;;
37701;SDS011;23548;51.196;6.838;2023-05-19T10:37:37;10.23;;;2.70;;
37701;SDS011;23548;51.196;6.838;2023-05-19T10:40:28;7.65;;;3.03;;
37701;SDS011;23548;51.196;6.838;2023-05-19T10:43:14;6.82;;;2.60;;
37701;SDS011;23548;51.196;6.838;2023-05-19T10:45:50;11.57;;;3.47;;
37701;SDS011;23548;51.196;6.838;2023-05-19T10:48:18;17.65;;;3.22;;
37701;SDS011;23548;51.196;6.838;2023-05-19T10:50:45;10.05;;;2.78;;
37701;SDS011;23548;51.196;6.838;2023-05-19T10:53:15;11.60;;;2.72;;
37701;SDS011;23548;51.196;6.838;2023-05-19T11:01:14;6.80;;;2.83;;
37701;SDS011;23548;51.196;6.838;2023-05-19T11:06:18;9.85;;;3.20;;
37701;SDS011;23548;51.196;6.838;2023-05-19T11:09:09;9.02;;;2.90;;
37701;SDS011;23548;51.196;6.838;2023-05-19T11:11:47;6.18;;;2.72;;
37701;SDS011;23548;51.196;6.838;2023-05-19T11:14:15;6.85;;;2.90;;
37701;SDS011;23548;51.196;6.838;2023-05-19T11:16:49;9.27;;;2.95;;
37701;SDS011;23548;51.196;6.838;2023-05-19T11:19:17;8.27;;;2.60;;
37701;SDS011;23548;51.196;6.838;2023-05-19T11:21:48;9.18;;;2.90;;
37701;SDS011;23548;51.196;6.838;2023-05-19T11:27:19;7.55;;;2.88;;
37701;SDS011;23548;51.196;6.838;2023-05-19T11:32:25;10.95;;;2.70;;
37701;SDS011;23548;51.196;6.838;2023-05-19T11:34:54;6.55;;;2.45;;
37701;SDS011;23548;51.196;6.838;2023-05-19T11:37:21;6.60;;;2.75;;
37701;SDS011;23548;51.196;6.838;2023-05-19T11:39:47;9.70;;;2.72;;
37701;SDS011;23548;51.196;6.838;2023-05-19T11:42:14;6.60;;;2.67;;
37701;SDS011;23548;51.196;6.838;2023-05-19T11:44:41;7.45;;;2.80;;
37701;SDS011;23548;51.196;6.838;2023-05-19T11:47:11;5.82;;;2.70;;
37701;SDS011;23548;51.196;6.838;2023-05-19T11:49:42;6.03;;;2.78;;
37701;SDS011;23548;51.196;6.838;2023-05-19T11:52:11;14.75;;;3.10;;
37701;SDS011;23548;51.196;6.838;2023-05-19T11:54:38;6.43;;;2.65;;
37701;SDS011;23548;51.196;6.838;2023-05-19T11:57:08;10.85;;;2.72;;
37701;SDS011;23548;51.196;6.838;2023-05-19T11:59:38;11.15;;;3.22;;
37701;SDS011;23548;51.196;6.838;2023-05-19T12:02:23;8.48;;;2.97;;
37701;SDS011;23548;51.196;6.838;2023-05-19T12:04:50;12.07;;;3.00;;
37701;SDS011;23548;51.196;6.838;2023-05-19T12:07:21;10.13;;;2.80;;
37701;SDS011;23548;51.196;6.838;2023-05-19T12:09:48;9.43;;;3.00;;
37701;SDS011;23548;51.196;6.838;2023-05-19T12:12:16;8.45;;;2.63;;
37701;SDS011;23548;51.196;6.838;2023-05-19T12:14:47;4.63;;;2.63;;
37701;SDS011;23548;51.196;6.838;2023-05-19T12:17:20;11.52;;;3.15;;
37701;SDS011;23548;51.196;6.838;2023-05-19T12:19:48;5.45;;;2.50;;
37701;SDS011;23548;51.196;6.838;2023-05-19T12:22:18;8.65;;;3.00;;
37701;SDS011;23548;51.196;6.838;2023-05-19T12:24:44;9.93;;;3.38;;
37701;SDS011;23548;51.196;6.838;2023-05-19T12:27:22;7.57;;;3.03;;
37701;SDS011;23548;51.196;6.838;2023-05-19T12:29:51;7.88;;;3.10;;
37701;SDS011;23548;51.196;6.838;2023-05-19T12:32:18;6.50;;;2.92;;
37701;SDS011;23548;51.196;6.838;2023-05-19T12:34:47;6.80;;;2.58;;
37701;SDS011;23548;51.196;6.838;2023-05-19T12:37:14;7.40;;;2.78;;
37701;SDS011;23548;51.196;6.838;2023-05-19T12:39:41;7.95;;;2.50;;
37701;SDS011;23548;51.196;6.838;2023-05-19T12:42:07;6.35;;;2.58;;
37701;SDS011;23548;51.196;6.838;2023-05-19T12:44:41;10.70;;;2.78;;
37701;SDS011;23548;51.196;6.838;2023-05-19T12:47:11;11.18;;;3.13;;
37701;SDS011;23548;51.196;6.838;2023-05-19T12:49:53;10.65;;;3.10;;
37701;SDS011;23548;51.196;6.838;2023-05-19T12:52:21;9.10;;;3.22;;
37701;SDS011;23548;51.196;6.838;2023-05-19T12:54:48;7.95;;;3.10;;
37701;SDS011;23548;51.196;6.838;2023-05-19T12:57:22;6.38;;;2.55;;
37701;SDS011;23548;51.196;6.838;2023-05-19T12:59:50;10.43;;;2.63;;
37701;SDS011;23548;51.196;6.838;2023-05-19T13:02:16;5.82;;;2.65;;
37701;SDS011;23548;51.196;6.838;2023-05-19T13:04:43;7.57;;;2.90;;
37701;SDS011;23548;51.196;6.838;2023-05-19T13:07:10;5.90;;;2.40;;
37701;SDS011;23548;51.196;6.838;2023-05-19T13:09:36;10.55;;;2.65;;
37701;SDS011;23548;51.196;6.838;2023-05-19T13:12:03;10.43;;;2.70;;
37701;SDS011;23548;51.196;6.838;2023-05-19T13:14:29;6.50;;;2.42;;
37701;SDS011;23548;51.196;6.838;2023-05-19T13:16:55;7.25;;;2.70;;
37701;SDS011;23548;51.196;6.838;2023-05-19T13:19:21;7.20;;;2.90;;
37701;SDS011;23548;51.196;6.838;2023-05-19T13:21:46;7.43;;;2.85;;
37701;SDS011;23548;51.196;6.838;2023-05-19T13:24:14;8.15;;;2.75;;
37701;SDS011;23548;51.196;6.838;2023-05-19T13:26:40;7.55;;;2.72;;
37701;SDS011;23548;51.196;6.838;2023-05-19T13:29:06;7.35;;;2.42;;
37701;SDS011;23548;51.196;6.838;2023-05-19T13:31:32;7.53;;;2.92;;
37701;SDS011;23548;51.196;6.838;2023-05-19T13:33:58;5.70;;;2.55;;
37701;SDS011;23548;51.196;6.838;2023-05-19T13:36:24;8.23;;;2.80;;
37701;SDS011;23548;51.196;6.838;2023-05-19T13:38:53;7.38;;;2.85;;
37701;SDS011;23548;51.196;6.838;2023-05-19T13:41:25;11.80;;;2.70;;
37701;SDS011;23548;51.196;6.838;2023-05-19T13:43:53;5.65;;;2.30;;
37701;SDS011;23548;51.196;6.838;2023-05-19T13:46:20;6.20;;;2.67;;
37701;SDS011;23548;51.196;6.838;2023-05-19T13:48:46;6.93;;;2.63;;
37701;SDS011;23548;51.196;6.838;2023-05-19T13:51:12;5.57;;;2.45;;
37701;SDS011;23548;51.196;6.838;2023-05-19T13:53:38;6.85;;;2.20;;
37701;SDS011;23548;51.196;6.838;2023-05-19T13:56:05;10.82;;;3.08;;
37701;SDS011;23548;51.196;6.838;2023-05-19T13:58:31;8.93;;;2.80;;
37701;SDS011;23548;51.196;6.838;2023-05-19T14:00:57;8.18;;;2.58;;
37701;SDS011;23548;51.196;6.838;2023-05-19T14:03:24;6.38;;;2.15;;
37701;SDS011;23548;51.196;6.838;2023-05-19T14:05:50;7.00;;;2.50;;
37701;SDS011;23548;51.196;6.838;2023-05-19T14:08:17;7.72;;;2.75;;
37701;SDS011;23548;51.196;6.838;2023-05-19T14:10:45;4.32;;;2.28;;
37701;SDS011;23548;51.196;6.838;2023-05-19T14:13:11;7.60;;;2.72;;
37701;SDS011;23548;51.196;6.838;2023-05-19T14:15:37;7.60;;;2.63;;
37701;SDS011;23548;51.196;6.838;2023-05-19T14:18:03;8.32;;;2.13;;
37701;SDS011;23548;51.196;6.838;2023-05-19T14:20:29;11.40;;;7.82;;
37701;SDS011;23548;51.196;6.838;2023-05-19T14:22:55;5.03;;;2.08;;
37701;SDS011;23548;51.196;6.838;2023-05-19T14:25:22;5.55;;;2.63;;
37701;SDS011;23548;51.196;6.838;2023-05-19T14:27:48;6.63;;;2.38;;
37701;SDS011;23548;51.196;6.838;2023-05-19T14:30:15;7.25;;;2.22;;
37701;SDS011;23548;51.196;6.838;2023-05-19T14:32:40;7.43;;;2.30;;
37701;SDS011;23548;51.196;6.838;2023-05-19T14:35:06;5.85;;;2.08;;
37701;SDS011;23548;51.196;6.838;2023-05-19T14:37:32;5.97;;;2.10;;
37701;SDS011;23548;51.196;6.838;2023-05-19T14:39:59;4.82;;;2.28;;
37701;SDS011;23548;51.196;6.838;2023-05-19T14:42:24;7.00;;;2.30;;
37701;SDS011;23548;51.196;6.838;2023-05-19T14:44:51;7.40;;;2.28;;
37701;SDS011;23548;51.196;6.838;2023-05-19T14:47:17;5.18;;;2.03;;
37701;SDS011;23548;51.196;6.838;2023-05-19T14:49:43;5.18;;;2.30;;
37701;SDS011;23548;51.196;6.838;2023-05-19T14:52:09;6.20;;;2.05;;
37701;SDS011;23548;51.196;6.838;2023-05-19T14:54:35;4.10;;;1.98;;
37701;SDS011;23548;51.196;6.838;2023-05-19T14:57:01;4.80;;;2.10;;
37701;SDS011;23548;51.196;6.838;2023-05-19T14:59:29;6.95;;;2.15;;
37701;SDS011;23548;51.196;6.838;2023-05-19T15:01:55;9.32;;;2.00;;
37701;SDS011;23548;51.196;6.838;2023-05-19T15:04:21;8.15;;;1.80;;
37701;SDS011;23548;51.196;6.838;2023-05-19T15:06:46;3.92;;;2.22;;
37701;SDS011;23548;51.196;6.838;2023-05-19T15:09:13;5.15;;;2.10;;
37701;SDS011;23548;51.196;6.838;2023-05-19T15:11:39;6.95;;;2.05;;
37701;SDS011;23548;51.196;6.838;2023-05-19T15:14:05;9.15;;;2.35;;
37701;SDS011;23548;51.196;6.838;2023-05-19T15:16:31;3.67;;;2.13;;
37701;SDS011;23548;51.196;6.838;2023-05-19T15:18:57;5.15;;;2.00;;
37701;SDS011;23548;51.196;6.838;2023-05-19T15:21:23;5.15;;;2.03;;
37701;SDS011;23548;51.196;6.838;2023-05-19T15:23:49;4.65;;;1.67;;
37701;SDS011;23548;51.196;6.838;2023-05-19T15:26:15;4.40;;;2.20;;
37701;SDS011;23548;51.196;6.838;2023-05-19T15:28:41;6.00;;;2.20;;
37701;SDS011;23548;51.196;6.838;2023-05-19T15:31:08;5.63;;;2.05;;